Terminal Aerodrome Forecast
Issued by NWS Charleston, WV

Current Version | Previous Version | Graphics & Text | Print | Product List | Glossary On
Versions: 1 2 3 4 5 6 7 8 9 10 11 12 13 14 15 16 17 18 19 20 21 22 23 24 25 26 27 28
000
FTUS41 KRLX 192300
TAFEKN
TAF
KEKN 192328Z 2000/2024 16009G16KT P6SM SCT030
     FM200800 17006KT 4SM BR SCT001 SCT030
     FM201300 00000KT 5SM HZ SCT002 SCT080
     FM201500 19008KT P6SM SCT040
     FM202300 18004KT P6SM SCT050=

USA.gov is the U.S. government's official web portal to all federal, state and local government web resources and services.